createdAt,value
2019-03-16T00:02:13.914Z,9.60
2019-03-16T00:04:42.345Z,9.50
2019-03-16T00:07:10.748Z,9.50
2019-03-16T00:09:39.163Z,9.50
2019-03-16T00:12:07.584Z,9.50
2019-03-16T00:14:35.979Z,9.50
2019-03-16T00:17:04.400Z,9.50
2019-03-16T00:19:32.804Z,9.50
2019-03-16T00:22:01.224Z,9.50
2019-03-16T00:24:29.643Z,9.50
2019-03-16T00:26:58.044Z,9.60
2019-03-16T00:29:26.460Z,9.50
2019-03-16T00:31:54.866Z,9.50
2019-03-16T00:34:23.284Z,9.50
2019-03-16T00:36:51.706Z,9.50
2019-03-16T00:39:20.109Z,9.50
2019-03-16T00:41:48.521Z,9.50
2019-03-16T00:44:16.924Z,9.50
2019-03-16T00:46:45.335Z,9.40
2019-03-16T00:49:13.744Z,9.40
2019-03-16T00:51:42.165Z,9.40
2019-03-16T00:54:10.568Z,9.40
2019-03-16T00:56:38.967Z,9.40
2019-03-16T00:59:07.840Z,9.40
2019-03-16T01:01:36.261Z,9.40
2019-03-16T01:04:04.744Z,9.40
2019-03-16T01:06:33.152Z,9.40
2019-03-16T01:09:01.563Z,9.30
2019-03-16T01:11:29.965Z,9.40
2019-03-16T01:13:58.380Z,9.40
2019-03-16T01:16:26.791Z,9.40
2019-03-16T01:18:55.204Z,9.40
2019-03-16T01:21:23.626Z,9.40
2019-03-16T01:23:52.024Z,9.40
2019-03-16T01:26:20.445Z,9.40
2019-03-16T01:28:48.843Z,9.40
2019-03-16T01:31:17.260Z,9.30
2019-03-16T01:33:45.679Z,9.30
2019-03-16T01:36:14.083Z,9.40
2019-03-16T01:38:42.505Z,9.40
2019-03-16T01:41:10.896Z,9.40
2019-03-16T01:43:39.304Z,9.30
2019-03-16T01:46:07.717Z,9.40
2019-03-16T01:48:36.111Z,9.40
2019-03-16T01:51:04.518Z,9.40
2019-03-16T01:53:32.922Z,9.40
2019-03-16T01:56:01.343Z,9.40
2019-03-16T01:58:29.748Z,9.40
2019-03-16T02:00:58.159Z,9.40
2019-03-16T02:03:26.572Z,9.40
2019-03-16T02:05:54.973Z,9.40
2019-03-16T02:08:23.383Z,9.40
2019-03-16T02:10:51.799Z,9.40
2019-03-16T02:13:20.191Z,9.40
2019-03-16T02:15:48.620Z,9.40
2019-03-16T02:18:17.033Z,9.40
2019-03-16T02:20:45.426Z,9.40
2019-03-16T02:23:13.847Z,9.40
2019-03-16T02:25:42.264Z,9.40
2019-03-16T02:28:10.717Z,9.30
2019-03-16T02:30:39.144Z,9.30
2019-03-16T02:33:13.153Z,9.30
2019-03-16T02:35:37.668Z,9.30
2019-03-16T02:38:06.085Z,9.30
2019-03-16T02:40:34.491Z,9.30
2019-03-16T02:43:02.979Z,9.20
2019-03-16T02:45:31.368Z,9.20
2019-03-16T02:47:59.852Z,9.20
2019-03-16T02:50:28.253Z,9.20
2019-03-16T02:52:56.672Z,9.20
2019-03-16T02:55:25.069Z,9.20
2019-03-16T02:57:53.472Z,9.20
2019-03-16T03:00:21.876Z,9.20
2019-03-16T03:02:50.408Z,9.20
2019-03-16T03:05:18.881Z,9.50
2019-03-16T03:07:47.303Z,9.20
2019-03-16T03:10:16.144Z,9.20
2019-03-16T03:12:44.553Z,9.20
2019-03-16T03:15:13.029Z,9.20
2019-03-16T03:17:41.428Z,9.20
2019-03-16T03:20:10.869Z,9.30
2019-03-16T03:22:39.297Z,9.20
2019-03-16T03:25:07.892Z,9.30
2019-03-16T03:27:36.302Z,9.20
2019-03-16T03:30:08.145Z,9.30
2019-03-16T03:32:36.653Z,9.30
2019-03-16T03:35:06.262Z,9.30
2019-03-16T03:37:34.744Z,9.30
2019-03-16T03:40:03.612Z,9.20
2019-03-16T03:42:32.019Z,9.20
2019-03-16T03:45:00.422Z,9.20
2019-03-16T03:47:28.829Z,9.20
2019-03-16T03:49:57.311Z,9.20
2019-03-16T03:52:26.656Z,9.30
2019-03-16T03:54:55.231Z,9.30
2019-03-16T03:57:23.651Z,9.30
2019-03-16T03:59:52.055Z,9.30
2019-03-16T04:02:20.534Z,9.30
2019-03-16T04:04:48.953Z,9.30
2019-03-16T04:07:20.079Z,9.40
2019-03-16T04:09:47.504Z,9.30
2019-03-16T04:12:15.896Z,9.30
2019-03-16T04:14:44.321Z,9.30
2019-03-16T04:17:12.737Z,9.30
2019-03-16T04:19:41.152Z,9.30
2019-03-16T04:22:09.557Z,9.30
2019-03-16T04:24:37.964Z,9.30
2019-03-16T04:27:15.664Z,9.30
2019-03-16T04:29:36.492Z,9.30
2019-03-16T04:32:04.968Z,9.20
2019-03-16T04:34:33.381Z,9.20
2019-03-16T04:37:01.885Z,9.20
2019-03-16T04:39:30.476Z,9.20
2019-03-16T04:41:58.855Z,9.30
2019-03-16T04:44:27.271Z,9.20
2019-03-16T04:46:55.672Z,9.20
2019-03-16T04:49:24.110Z,9.20
2019-03-16T04:51:52.522Z,9.20
2019-03-16T04:54:20.919Z,9.20
2019-03-16T04:56:49.327Z,9.20
2019-03-16T04:59:17.737Z,9.10
2019-03-16T05:01:46.152Z,9.20
2019-03-16T05:04:14.560Z,9.10
2019-03-16T05:06:42.964Z,9.20
2019-03-16T05:09:11.369Z,9.10
2019-03-16T05:11:39.778Z,9.10
2019-03-16T05:14:08.177Z,9.20
2019-03-16T05:16:36.596Z,9.20
2019-03-16T05:19:05.059Z,9.20
2019-03-16T05:21:33.474Z,9.20
2019-03-16T05:24:02.960Z,9.20
2019-03-16T05:26:31.554Z,9.20
2019-03-16T05:28:59.956Z,9.20
2019-03-16T05:31:28.357Z,9.20
2019-03-16T05:33:56.768Z,9.20
2019-03-16T05:36:25.166Z,9.30
2019-03-16T05:38:53.580Z,9.20
2019-03-16T05:41:21.989Z,9.30
2019-03-16T05:43:50.387Z,9.20
2019-03-16T05:46:18.800Z,9.30
2019-03-16T05:48:47.190Z,9.30
2019-03-16T05:51:15.604Z,9.30
2019-03-16T05:53:44.006Z,9.30
2019-03-16T05:56:12.422Z,9.30
2019-03-16T05:58:40.820Z,9.30
2019-03-16T06:01:09.228Z,9.40
2019-03-16T06:03:37.622Z,9.40
2019-03-16T06:06:06.044Z,9.40
2019-03-16T06:08:34.441Z,9.50
2019-03-16T06:11:02.840Z,9.50
2019-03-16T06:13:31.249Z,9.50
2019-03-16T06:15:59.662Z,9.50
2019-03-16T06:18:28.061Z,9.60
2019-03-16T06:20:56.472Z,9.60
2019-03-16T06:23:24.886Z,9.60
2019-03-16T06:25:53.288Z,9.60
2019-03-16T06:28:21.699Z,9.60
2019-03-16T06:30:50.124Z,9.60
2019-03-16T06:33:18.520Z,9.60
2019-03-16T06:35:46.940Z,9.60
2019-03-16T06:38:15.323Z,9.70
2019-03-16T06:40:43.732Z,9.60
2019-03-16T06:43:12.140Z,9.60
2019-03-16T06:45:40.543Z,9.60
2019-03-16T06:48:08.958Z,9.60
2019-03-16T06:50:37.352Z,9.60
2019-03-16T06:53:05.772Z,9.70
2019-03-16T06:55:34.171Z,9.70
2019-03-16T06:58:02.584Z,9.70
2019-03-16T07:00:30.989Z,9.60
2019-03-16T07:02:59.391Z,9.60
2019-03-16T07:05:37.540Z,9.60
2019-03-16T07:07:57.956Z,9.60
2019-03-16T07:10:26.355Z,9.70
2019-03-16T07:12:54.797Z,9.70
2019-03-16T07:15:23.183Z,9.70
2019-03-16T07:17:51.603Z,9.70
2019-03-16T07:20:19.999Z,9.70
2019-03-16T07:22:48.408Z,9.70
2019-03-16T07:25:16.811Z,9.70
2019-03-16T07:27:45.216Z,9.90
2019-03-16T07:30:14.267Z,9.90
2019-03-16T07:32:42.676Z,10.00
2019-03-16T07:35:11.270Z,10.10
2019-03-16T07:37:39.731Z,10.00
2019-03-16T07:40:10.737Z,10.10
2019-03-16T07:42:39.152Z,10.10
2019-03-16T07:45:10.654Z,10.10
2019-03-16T07:47:39.072Z,10.20
2019-03-16T07:50:09.616Z,10.20
2019-03-16T07:52:38.016Z,10.30
2019-03-16T07:55:07.164Z,10.30
2019-03-16T07:57:40.352Z,10.30
2019-03-16T08:00:08.817Z,10.20
2019-03-16T08:02:37.232Z,10.20
2019-03-16T08:05:17.529Z,10.30
2019-03-16T08:07:36.411Z,10.30
2019-03-16T08:10:07.756Z,10.40
2019-03-16T08:12:36.180Z,10.50
2019-03-16T08:15:06.141Z,10.50
2019-03-16T08:17:34.627Z,10.50
2019-03-16T08:20:03.586Z,10.60
2019-03-16T08:22:31.993Z,10.60
2019-03-16T08:25:00.433Z,10.70
2019-03-16T08:27:28.848Z,10.70
2019-03-16T08:29:57.253Z,10.80
2019-03-16T08:32:25.678Z,10.90
2019-03-16T08:34:54.106Z,10.90
2019-03-16T08:37:22.603Z,10.80
2019-03-16T08:39:51.039Z,10.80
2019-03-16T08:42:40.070Z,10.70
2019-03-16T08:44:51.209Z,10.90
2019-03-16T08:47:19.593Z,10.90
2019-03-16T08:49:48.025Z,10.80
2019-03-16T08:52:29.957Z,10.90
2019-03-16T08:54:57.373Z,11.00
2019-03-16T08:57:25.796Z,11.00
2019-03-16T08:59:54.212Z,11.00
2019-03-16T09:02:22.638Z,11.10
2019-03-16T09:04:53.685Z,11.20
2019-03-16T09:07:21.340Z,11.20
2019-03-16T09:09:51.460Z,11.20
2019-03-16T09:12:19.868Z,11.20
2019-03-16T09:14:48.538Z,11.20
2019-03-16T09:17:16.966Z,11.40
2019-03-16T09:19:45.395Z,11.40
2019-03-16T09:22:13.784Z,11.40
2019-03-16T09:24:42.212Z,11.30
2019-03-16T09:27:10.637Z,11.40
2019-03-16T09:29:39.064Z,11.60
2019-03-16T09:32:07.466Z,11.60
2019-03-16T09:34:35.864Z,11.70
2019-03-16T09:37:04.344Z,11.80
2019-03-16T09:39:32.760Z,11.80
2019-03-16T09:42:01.172Z,11.80
2019-03-16T09:44:29.591Z,11.90
2019-03-16T09:46:58.020Z,12.10
2019-03-16T09:49:27.275Z,12.00
2019-03-16T09:51:55.692Z,12.10
2019-03-16T09:54:24.095Z,12.10
2019-03-16T09:57:01.011Z,12.20
2019-03-16T09:59:22.637Z,12.30
2019-03-16T10:01:51.057Z,12.20
2019-03-16T10:04:19.474Z,12.10
2019-03-16T10:06:47.876Z,12.30
2019-03-16T10:09:16.301Z,12.20
2019-03-16T10:11:44.713Z,12.30
2019-03-16T10:14:13.132Z,12.30
2019-03-16T10:16:41.547Z,12.30
2019-03-16T10:19:10.013Z,12.30
2019-03-16T10:21:38.432Z,12.50
2019-03-16T10:24:06.840Z,12.60
2019-03-16T10:26:37.376Z,12.70
2019-03-16T10:29:05.407Z,12.70
2019-03-16T10:31:33.819Z,12.90
2019-03-16T10:34:02.239Z,13.00
2019-03-16T10:36:30.643Z,12.90
2019-03-16T10:38:59.074Z,13.00
2019-03-16T10:41:27.485Z,13.00
2019-03-16T10:43:55.892Z,12.90
2019-03-16T10:46:24.303Z,13.00
2019-03-16T10:48:52.721Z,13.10
2019-03-16T10:51:21.127Z,13.20
2019-03-16T10:53:49.544Z,13.10
2019-03-16T10:56:17.956Z,13.00
2019-03-16T10:58:56.100Z,13.10
2019-03-16T11:01:16.522Z,13.30
2019-03-16T11:03:44.936Z,13.40
2019-03-16T11:06:13.455Z,13.50
2019-03-16T11:08:41.856Z,13.60
2019-03-16T11:11:10.264Z,13.60
2019-03-16T11:13:38.715Z,13.60
2019-03-16T11:16:07.159Z,13.40
2019-03-16T11:18:35.579Z,13.30
2019-03-16T11:21:04.049Z,13.20
2019-03-16T11:23:32.475Z,13.20
2019-03-16T11:26:00.875Z,13.10
2019-03-16T11:28:29.289Z,13.20
2019-03-16T11:30:57.706Z,13.30
2019-03-16T11:33:26.112Z,13.10
2019-03-16T11:35:54.553Z,13.20
2019-03-16T11:38:22.964Z,13.10
2019-03-16T11:40:51.386Z,13.10
2019-03-16T11:43:19.799Z,13.20
2019-03-16T11:45:48.212Z,13.20
2019-03-16T11:48:16.641Z,13.40
2019-03-16T11:50:45.043Z,13.50
2019-03-16T11:53:14.448Z,13.60
2019-03-16T11:55:42.881Z,13.70
2019-03-16T11:58:11.295Z,13.80
2019-03-16T12:00:39.716Z,13.90
2019-03-16T12:03:08.124Z,13.80
2019-03-16T12:05:37.488Z,13.80
2019-03-16T12:08:05.897Z,13.90
2019-03-16T12:10:34.318Z,13.80
2019-03-16T12:13:02.750Z,13.70
2019-03-16T12:15:31.165Z,13.70
2019-03-16T12:17:59.599Z,13.80
2019-03-16T12:20:28.006Z,13.80
2019-03-16T12:22:56.439Z,13.60
2019-03-16T12:25:25.781Z,13.50
2019-03-16T12:27:54.184Z,13.50
2019-03-16T12:30:22.613Z,13.50
2019-03-16T12:32:51.024Z,13.40
2019-03-16T12:35:19.466Z,13.40
2019-03-16T12:37:47.889Z,13.50
2019-03-16T12:40:16.442Z,13.60
2019-03-16T12:42:44.886Z,13.60
2019-03-16T12:45:14.628Z,13.70
2019-03-16T12:47:43.047Z,13.80
2019-03-16T12:50:11.597Z,13.80
2019-03-16T12:52:40.100Z,13.90
2019-03-16T12:55:10.428Z,14.00
2019-03-16T12:57:38.932Z,14.00
2019-03-16T13:00:10.578Z,13.90
2019-03-16T13:02:38.984Z,13.80
2019-03-16T13:05:07.656Z,13.80
2019-03-16T13:07:36.074Z,14.00
2019-03-16T13:10:07.400Z,14.10
2019-03-16T13:12:35.842Z,14.30
2019-03-16T13:15:05.892Z,14.20
2019-03-16T13:17:34.411Z,14.30
2019-03-16T13:20:03.396Z,14.40
2019-03-16T13:22:31.897Z,14.60
2019-03-16T13:25:00.390Z,14.50
2019-03-16T13:27:28.828Z,14.40
2019-03-16T13:29:59.141Z,14.40
2019-03-16T13:32:27.459Z,14.40
2019-03-16T13:34:56.033Z,14.50
2019-03-16T13:37:24.458Z,14.60
2019-03-16T13:39:52.877Z,14.80
2019-03-16T13:42:21.309Z,14.90
2019-03-16T13:44:49.737Z,14.90
2019-03-16T13:47:18.259Z,15.00
2019-03-16T13:49:46.683Z,14.90
2019-03-16T13:52:15.101Z,14.90
2019-03-16T13:54:43.526Z,14.90
2019-03-16T13:57:11.940Z,14.90
2019-03-16T13:59:40.365Z,15.00
2019-03-16T14:02:08.795Z,15.10
2019-03-16T14:04:37.514Z,15.20
2019-03-16T14:07:05.982Z,15.20
2019-03-16T14:09:34.409Z,15.40
2019-03-16T14:12:03.113Z,15.70
2019-03-16T14:14:31.548Z,15.70
2019-03-16T14:16:59.972Z,15.60
2019-03-16T14:19:28.412Z,15.50
2019-03-16T14:21:56.820Z,15.40
2019-03-16T14:24:25.313Z,15.50
2019-03-16T14:26:54.015Z,15.40
2019-03-16T14:29:22.433Z,15.50
2019-03-16T14:31:50.856Z,15.60
2019-03-16T14:34:19.289Z,15.60
2019-03-16T14:36:47.720Z,15.70
2019-03-16T14:39:16.204Z,15.80
2019-03-16T14:41:44.633Z,15.80
2019-03-16T14:44:13.063Z,15.90
2019-03-16T14:46:41.492Z,15.90
2019-03-16T14:49:09.921Z,15.90
2019-03-16T14:51:38.340Z,16.00
2019-03-16T14:54:06.760Z,16.10
2019-03-16T14:56:35.199Z,16.10
2019-03-16T14:59:03.685Z,16.00
2019-03-16T15:01:32.181Z,16.00
2019-03-16T15:04:00.597Z,16.20
2019-03-16T15:06:29.021Z,16.20
2019-03-16T15:08:57.443Z,16.30
2019-03-16T15:11:25.864Z,16.30
2019-03-16T15:13:54.298Z,16.30
2019-03-16T15:16:22.736Z,16.30
2019-03-16T15:18:51.346Z,16.20
2019-03-16T15:21:19.800Z,16.20
2019-03-16T15:23:48.208Z,16.20
2019-03-16T15:26:16.633Z,16.10
2019-03-16T15:28:45.062Z,16.00
2019-03-16T15:31:13.480Z,16.00
2019-03-16T15:33:41.914Z,15.90
2019-03-16T15:36:10.323Z,15.90
2019-03-16T15:38:38.809Z,15.90
2019-03-16T15:41:07.245Z,15.80
2019-03-16T15:43:35.705Z,15.80
2019-03-16T15:46:04.121Z,15.80
2019-03-16T15:48:32.548Z,15.90
2019-03-16T15:51:00.991Z,15.90
2019-03-16T15:53:29.469Z,15.90
2019-03-16T15:55:57.961Z,15.80
2019-03-16T15:58:26.440Z,15.80
2019-03-16T16:01:03.443Z,15.80
2019-03-16T16:03:25.089Z,15.90
2019-03-16T16:05:53.584Z,15.80
2019-03-16T16:08:22.004Z,15.80
2019-03-16T16:11:00.620Z,15.70
2019-03-16T16:13:20.764Z,15.70
2019-03-16T16:15:49.191Z,15.60
2019-03-16T16:18:17.634Z,15.60
2019-03-16T16:20:46.164Z,15.60
2019-03-16T16:23:14.611Z,15.50
2019-03-16T16:25:43.039Z,15.50
2019-03-16T16:28:11.462Z,15.60
2019-03-16T16:30:40.089Z,15.70
2019-03-16T16:33:08.633Z,15.70
2019-03-16T16:35:37.066Z,15.70
2019-03-16T16:38:05.612Z,15.70
2019-03-16T16:40:34.081Z,15.70
2019-03-16T16:43:02.520Z,15.70
2019-03-16T16:45:30.969Z,15.60
2019-03-16T16:47:59.461Z,15.50
2019-03-16T16:50:27.992Z,15.40
2019-03-16T16:52:56.512Z,15.20
2019-03-16T16:55:24.976Z,15.10
2019-03-16T16:57:53.404Z,15.10
2019-03-16T17:00:26.792Z,15.10
2019-03-16T17:02:55.223Z,15.10
2019-03-16T17:05:23.707Z,15.00
2019-03-16T17:07:52.141Z,14.90
2019-03-16T17:10:20.557Z,14.80
2019-03-16T17:12:48.977Z,14.70
2019-03-16T17:15:24.369Z,14.60
2019-03-16T17:17:52.794Z,14.50
2019-03-16T17:20:21.277Z,14.40
2019-03-16T17:22:49.692Z,14.30
2019-03-16T17:25:18.103Z,14.30
2019-03-16T17:27:46.511Z,14.20
2019-03-16T17:30:20.072Z,14.10
2019-03-16T17:32:48.480Z,14.00
2019-03-16T17:35:17.328Z,13.90
2019-03-16T17:37:45.740Z,13.90
2019-03-16T17:40:15.107Z,13.70
2019-03-16T17:42:43.654Z,13.60
2019-03-16T17:45:13.012Z,13.50
2019-03-16T17:47:41.672Z,13.40
2019-03-16T17:50:11.516Z,13.30
2019-03-16T17:52:40.007Z,13.20
2019-03-16T17:55:14.164Z,13.10
2019-03-16T17:57:45.254Z,13.00
2019-03-16T18:00:17.516Z,12.90
2019-03-16T18:02:51.885Z,12.70
2019-03-16T18:05:16.297Z,12.60
2019-03-16T18:07:44.790Z,12.50
2019-03-16T18:10:14.137Z,12.40
2019-03-16T18:12:42.603Z,12.30
2019-03-16T18:15:12.454Z,12.20
2019-03-16T18:17:40.866Z,12.20
2019-03-16T18:20:12.355Z,12.10
2019-03-16T18:22:40.827Z,12.10
2019-03-16T18:25:13.584Z,12.00
2019-03-16T18:27:42.058Z,11.90
2019-03-16T18:30:15.559Z,11.90
2019-03-16T18:32:44.035Z,11.90
2019-03-16T18:35:12.610Z,11.80
2019-03-16T18:37:41.076Z,11.80
2019-03-16T18:40:13.443Z,11.80
2019-03-16T18:42:41.852Z,11.70
2019-03-16T18:45:18.765Z,11.70
2019-03-16T18:47:47.179Z,11.70
2019-03-16T18:50:15.596Z,11.70
2019-03-16T18:52:44.011Z,11.70
2019-03-16T18:55:13.159Z,11.70
2019-03-16T18:57:41.647Z,11.60
2019-03-16T19:00:17.040Z,11.60
2019-03-16T19:02:45.459Z,11.50
2019-03-16T19:05:14.008Z,11.50
2019-03-16T19:07:42.492Z,11.50
2019-03-16T19:10:12.632Z,11.40
2019-03-16T19:12:41.048Z,11.40
2019-03-16T19:15:14.493Z,11.30
2019-03-16T19:17:42.980Z,11.10
2019-03-16T19:20:15.545Z,11.10
2019-03-16T19:22:43.960Z,11.00
2019-03-16T19:25:14.152Z,10.90
2019-03-16T19:27:42.664Z,10.80
2019-03-16T19:30:13.208Z,10.80
2019-03-16T19:32:41.727Z,10.80
2019-03-16T19:35:10.476Z,10.80
2019-03-16T19:37:38.885Z,10.80
2019-03-16T19:40:15.511Z,10.80
2019-03-16T19:42:46.443Z,10.80
2019-03-16T19:45:14.523Z,10.70
2019-03-16T19:47:43.020Z,10.60
2019-03-16T19:50:17.766Z,10.50
2019-03-16T19:52:46.264Z,10.40
2019-03-16T19:55:14.904Z,10.30
2019-03-16T19:57:43.539Z,10.30
2019-03-16T20:00:18.233Z,10.20
2019-03-16T20:02:51.062Z,10.20
2019-03-16T20:05:16.767Z,10.20
2019-03-16T20:07:45.198Z,10.30
2019-03-16T20:10:14.763Z,10.30
2019-03-16T20:12:43.238Z,10.30
2019-03-16T20:15:12.802Z,10.40
2019-03-16T20:17:41.201Z,10.40
2019-03-16T20:20:16.973Z,10.40
2019-03-16T20:22:45.420Z,10.40
2019-03-16T20:25:13.963Z,10.50
2019-03-16T20:27:42.459Z,10.50
2019-03-16T20:30:13.077Z,10.50
2019-03-16T20:32:41.504Z,10.50
2019-03-16T20:35:29.252Z,10.50
2019-03-16T20:37:57.675Z,10.50
2019-03-16T20:40:26.175Z,10.50
2019-03-16T20:42:54.649Z,10.40
2019-03-16T20:45:23.183Z,10.40
2019-03-16T20:47:51.643Z,10.40
2019-03-16T20:50:20.413Z,10.30
2019-03-16T20:52:48.841Z,10.30
2019-03-16T20:55:17.240Z,10.20
2019-03-16T20:57:45.657Z,10.20
2019-03-16T21:00:16.296Z,10.10
2019-03-16T21:02:44.683Z,10.10
2019-03-16T21:05:13.368Z,10.00
2019-03-16T21:07:41.790Z,9.90
2019-03-16T21:10:11.706Z,9.90
2019-03-16T21:12:40.196Z,9.80
2019-03-16T21:15:11.393Z,9.70
2019-03-16T21:17:39.801Z,9.70
2019-03-16T21:20:13.819Z,9.70
2019-03-16T21:22:42.289Z,9.70
2019-03-16T21:25:12.435Z,9.60
2019-03-16T21:27:40.839Z,9.60
2019-03-16T21:30:14.344Z,9.70
2019-03-16T21:32:42.827Z,9.70
2019-03-16T21:35:11.392Z,9.90
2019-03-16T21:37:39.793Z,10.00
2019-03-16T21:40:12.690Z,10.10
2019-03-16T21:42:41.088Z,10.20
2019-03-16T21:45:13.221Z,10.20
2019-03-16T21:47:41.627Z,10.30
2019-03-16T21:50:11.382Z,10.30
2019-03-16T21:52:39.866Z,10.30
2019-03-16T21:55:10.284Z,10.30
2019-03-16T21:57:38.707Z,10.40
2019-03-16T22:00:15.351Z,10.30
2019-03-16T22:02:43.747Z,10.30
2019-03-16T22:05:12.299Z,10.40
2019-03-16T22:07:40.712Z,10.40
2019-03-16T22:10:12.213Z,10.30
2019-03-16T22:12:40.612Z,10.30
2019-03-16T22:15:16.432Z,10.30
2019-03-16T22:17:45.112Z,10.30
2019-03-16T22:20:17.575Z,10.40
2019-03-16T22:22:45.981Z,10.40
2019-03-16T22:25:14.596Z,10.50
2019-03-16T22:27:43.033Z,10.50
2019-03-16T22:30:14.567Z,10.50
2019-03-16T22:32:42.979Z,10.40
2019-03-16T22:35:11.408Z,10.40
2019-03-16T22:37:39.818Z,10.30
2019-03-16T22:40:15.057Z,10.30
2019-03-16T22:42:43.529Z,10.20
2019-03-16T22:45:15.120Z,10.10
2019-03-16T22:47:43.528Z,10.00
2019-03-16T22:50:19.123Z,9.80
2019-03-16T22:52:47.527Z,9.70
2019-03-16T22:55:16.552Z,9.60
2019-03-16T22:57:45.107Z,9.50
2019-03-16T23:00:15.617Z,9.30
2019-03-16T23:02:44.109Z,9.20
2019-03-16T23:05:12.657Z,9.10
2019-03-16T23:07:41.056Z,9.00
2019-03-16T23:10:11.567Z,8.90
2019-03-16T23:12:41.622Z,8.80
2019-03-16T23:15:11.139Z,8.70
2019-03-16T23:17:39.532Z,8.60
2019-03-16T23:20:09.084Z,8.60
2019-03-16T23:22:37.489Z,8.60
2019-03-16T23:25:08.010Z,8.50
2019-03-16T23:27:36.416Z,8.50
2019-03-16T23:30:08.736Z,8.40
2019-03-16T23:32:37.147Z,8.40
2019-03-16T23:35:09.499Z,8.40
2019-03-16T23:37:37.989Z,8.30
2019-03-16T23:40:10.494Z,8.30
2019-03-16T23:42:39.012Z,8.30
2019-03-16T23:45:10.097Z,8.20
2019-03-16T23:47:38.509Z,8.20
2019-03-16T23:50:09.168Z,8.20
2019-03-16T23:52:37.580Z,8.10
2019-03-16T23:55:09.701Z,8.10
2019-03-16T23:57:38.155Z,8.10
